Wetterdaten: August 2010
Datum Temp Feuchte Luftdruck Regen Wind Richtung Sonnenschein UV Solar Windben
01.08.2010 18,6 C 88 % 1012,8 hPa 10,2 l/m 4,9 km/h S 2,83 h 2,5 UV-I 251 W/m 8,0 km/h
02.08.2010 17,2 C 83 % 1013,9 hPa 0,2 l/m 1,9 km/h N-NW 5,67 h 2,4 UV-I 290 W/m 6,4 km/h
03.08.2010 16,0 C 83 % 1013,8 hPa 1,2 l/m 3,3 km/h N-NW 4,50 h 2,5 UV-I 257 W/m 9,3 km/h
04.08.2010 16,8 C 84 % 1007,8 hPa 4,0 l/m 4,5 km/h S 2,58 h 2,3 UV-I 216 W/m 12,4 km/h
05.08.2010 16,3 C 81 % 1008,9 hPa 3,0 l/m 4,0 km/h NW 3,83 h 2,3 UV-I 258 W/m 9,7 km/h
06.08.2010 16,8 C 77 % 1016,9 hPa 0,0 l/m 1,8 km/h NW 3,58 h 2,1 UV-I 244 W/m 4,4 km/h
07.08.2010 17,1 C 70 % 1016,8 hPa 0,0 l/m 1,3 km/h NW 11,75 h 3,1 UV-I 434 W/m 3,6 km/h
08.08.2010 15,8 C 93 % 1014,5 hPa 12,2 l/m 2,0 km/h N-NW 0,58 h 1,3 UV-I 133 W/m 4,4 km/h
09.08.2010 16,0 C 86 % 1016,4 hPa 0,4 l/m 1,9 km/h NW 3,17 h 2,5 UV-I 244 W/m 6,4 km/h
10.08.2010 19,3 C 68 % 1013,2 hPa 0,0 l/m 3,3 km/h S 7,75 h 2,7 UV-I 342 W/m 7,6 km/h
11.08.2010 17,5 C 91 % 1012,3 hPa 5,0 l/m 2,6 km/h S 3,75 h 1,7 UV-I 197 W/m 6,0 km/h
12.08.2010 17,1 C 84 % 1012,5 hPa 0,8 l/m 1,8 km/h NW 3,42 h 2,0 UV-I 191 W/m 5,2 km/h
13.08.2010 15,3 C 85 % 1016,6 hPa 0,2 l/m 0,9 km/h N-NW 4,58 h 2,2 UV-I 257 W/m 4,4 km/h
14.08.2010 18,0 C 73 % 1016,7 hPa 0,0 l/m 2,1 km/h N-NO 9,67 h 2,7 UV-I 391 W/m 4,4 km/h
15.08.2010 15,1 C 96 % 1010,0 hPa 5,0 l/m 6,5 km/h N-NO 0,00 h 0,8 UV-I 51 W/m 16,1 km/h
16.08.2010 13,9 C 96 % 1007,6 hPa 7,2 l/m 3,1 km/h S-SO 0,00 h 0,7 UV-I 68 W/m 10,0 km/h
17.08.2010 13,5 C 94 % 1006,3 hPa 13,0 l/m 8,1 km/h S 1,00 h 1,8 UV-I 127 W/m 18,9 km/h
18.08.2010 14,1 C 95 % 1006,5 hPa 5,6 l/m 2,3 km/h S 1,08 h 1,6 UV-I 151 W/m 12,5 km/h
19.08.2010 14,2 C 83 % 1016,1 hPa 0,2 l/m 2,9 km/h S 6,83 h 2,5 UV-I 337 W/m 8,4 km/h
20.08.2010 17,4 C 78 % 1020,2 hPa 0,0 l/m 1,8 km/h S 11,58 h 3,3 UV-I 415 W/m 6,4 km/h
21.08.2010 20,9 C 77 % 1020,7 hPa 0,0 l/m 2,3 km/h S 11,42 h 3,0 UV-I 404 W/m 6,4 km/h
22.08.2010 18,8 C 88 % 1013,9 hPa 10,8 l/m 2,9 km/h S 1,92 h 2,5 UV-I 195 W/m 8,4 km/h
23.08.2010 18,3 C 90 % 1002,2 hPa 1,6 l/m 9,6 km/h S 0,58 h 1,3 UV-I 129 W/m 18,1 km/h
24.08.2010 15,6 C 72 % 1007,6 hPa 0,2 l/m 7,8 km/h S 5,92 h 2,6 UV-I 318 W/m 22,1 km/h
25.08.2010 14,4 C 81 % 1014,5 hPa 0,0 l/m 4,0 km/h S-SW 3,25 h 2,0 UV-I 213 W/m 10,9 km/h
26.08.2010 16,6 C 92 % 1006,9 hPa 19,2 l/m 3,5 km/h S 0,00 h 0,9 UV-I 67 W/m 7,6 km/h
27.08.2010 13,9 C 96 % 1003,6 hPa 21,0 l/m 13,0 km/h S 0,00 h 1,1 UV-I 86 W/m 22,5 km/h
28.08.2010 11,7 C 92 % 1014,6 hPa 2,8 l/m 3,3 km/h NW 2,25 h 1,9 UV-I 218 W/m 13,3 km/h
29.08.2010 10,1 C 91 % 1008,6 hPa 12,8 l/m 13,2 km/h S 0,42 h 1,3 UV-I 104 W/m 28,6 km/h
30.08.2010 9,5 C 96 % 1012,1 hPa 11,8 l/m 12,6 km/h N-NW 0,92 h 0,8 UV-I 115 W/m 21,8 km/h
31.08.2010 12,2 C 90 % 1021,5 hPa 0,2 l/m 1,2 km/h N-NW 4,17 h 2,1 UV-I 283 W/m 4,8 km/h
Min-Datum 30.08.10 07.08.10 27.08.10 24 Tage 01.08.10 - - - - 01.08.10
Min-Zeit 00:55 16:05 06:20 - 03:00 - - - - 03:05
Minimum 6,4 C 38 % 999,1 hPa - 0,0 km/h - - - - 0,0 km/h
Max-Datum 21.08.10 27.08.10 31.08.10 27.08.10 29.08.10 - 07.08.10 05.08.10 03.08.10 17.08.10
Max-Zeit 14:50 03:50 11:40 12:45 21:20 - 19:30 13:10 14:20 17:05
Maximum 28,4 C 100 % 1023,0 hPa 21,0 l/m 26,7 km/h
S
- 11,67 h 6,6 UV-I 1090 W/m 49,9 km/h
W
Durchschnitt 15,7 C 85 % 1012,5 hPa #148,6 l/m 4,3 km/h S #119:00 h 2,0 UV-I 225 W/m 10,6 km/h

Durchschnitt Minimum Temp.11,7 C
Durchschnitt Maximum Temp.20,8 C